createdAt,value
2022-08-09T00:00:11.358Z,49.99
2022-08-09T00:04:10.050Z,49.91
2022-08-09T00:06:44.283Z,49.73
2022-08-09T00:09:50.632Z,49.16
2022-08-09T00:12:57.648Z,48.73
2022-08-09T00:16:03.115Z,49.18
2022-08-09T00:19:10.515Z,49.83
2022-08-09T00:22:15.575Z,49.89
2022-08-09T00:25:32.014Z,50.09
2022-08-09T00:28:38.440Z,50.10
2022-08-09T00:31:59.132Z,50.89
2022-08-09T00:35:07.110Z,50.42
2022-08-09T00:38:13.199Z,50.80
2022-08-09T00:44:14.879Z,51.32
2022-08-09T00:44:47.495Z,51.04
2022-08-09T00:47:52.595Z,51.70
2022-08-09T00:51:10.285Z,51.65
2022-08-09T00:54:18.058Z,51.93
2022-08-09T00:57:31.866Z,52.30
2022-08-09T01:00:42.711Z,51.77
2022-08-09T01:03:56.789Z,51.38
2022-08-09T01:07:16.963Z,51.47
2022-08-09T01:10:31.367Z,51.36
2022-08-09T01:13:59.621Z,52.58
2022-08-09T01:17:11.106Z,51.72
2022-08-09T01:20:21.401Z,52.24
2022-08-09T01:24:01.187Z,52.20
2022-08-09T01:27:09.805Z,52.70
2022-08-09T01:30:33.467Z,52.91
2022-08-09T01:33:42.651Z,53.19
2022-08-09T01:36:50.248Z,53.50
2022-08-09T01:39:57.255Z,52.77
2022-08-09T01:43:05.803Z,53.24
2022-08-09T01:46:23.836Z,53.90
2022-08-09T01:49:39.077Z,53.61
2022-08-09T01:52:47.489Z,53.39
2022-08-09T01:55:58.358Z,53.81
2022-08-09T01:59:11.526Z,54.18
2022-08-09T02:02:29.829Z,54.49
2022-08-09T02:05:53.513Z,54.57
2022-08-09T02:09:03.817Z,54.65
2022-08-09T02:12:11.271Z,54.94
2022-08-09T02:15:27.398Z,54.38
2022-08-09T02:18:52.522Z,54.91
2022-08-09T02:22:01.756Z,55.08
2022-08-09T02:25:15.276Z,55.32
2022-08-09T02:28:26.508Z,55.19
2022-08-09T02:31:37.618Z,55.51
2022-08-09T02:34:51.607Z,55.34
2022-08-09T02:38:02.640Z,55.79
2022-08-09T02:41:11.615Z,56.27
2022-08-09T02:44:30.345Z,56.50
2022-08-09T02:47:57.526Z,56.26
2022-08-09T02:51:05.296Z,56.83
2022-08-09T02:54:13.792Z,56.66
2022-08-09T02:57:23.594Z,56.98
2022-08-09T03:00:30.558Z,57.39
2022-08-09T03:04:17.690Z,57.21
2022-08-09T03:07:07.349Z,57.05
2022-08-09T03:10:19.345Z,57.52
2022-08-09T03:13:27.111Z,57.29
2022-08-09T03:16:50.282Z,57.32
2022-08-09T03:20:05.058Z,57.62
2022-08-09T03:23:24.670Z,57.69
2022-08-09T03:26:32.114Z,57.58
2022-08-09T03:29:57.373Z,57.51
2022-08-09T03:33:16.935Z,57.44
2022-08-09T03:36:27.619Z,58.22
2022-08-09T03:39:37.803Z,57.84
2022-08-09T03:42:43.360Z,58.03
2022-08-09T03:46:04.789Z,57.88
2022-08-09T03:49:17.292Z,58.16
2022-08-09T03:52:26.204Z,58.82
2022-08-09T03:55:35.887Z,58.57
2022-08-09T03:58:41.689Z,58.50
2022-08-09T04:01:53.682Z,58.58
2022-08-09T04:05:00.744Z,58.67
2022-08-09T04:08:08.412Z,58.57
2022-08-09T04:11:14.214Z,58.70
2022-08-09T04:14:53.446Z,58.64
2022-08-09T04:17:47.382Z,58.80
2022-08-09T04:20:52.730Z,59.46
2022-08-09T04:24:01.295Z,59.19
2022-08-09T04:27:07.730Z,60.07
2022-08-09T04:30:16.314Z,60.12
2022-08-09T04:33:23.622Z,60.24
2022-08-09T04:36:34.743Z,60.42
2022-08-09T04:39:41.552Z,60.64
2022-08-09T04:42:54.076Z,60.39
2022-08-09T04:45:58.873Z,60.82
2022-08-09T04:49:06.057Z,60.82
2022-08-09T04:52:18.704Z,60.35
2022-08-09T04:55:39.324Z,60.78
2022-08-09T04:58:56.737Z,60.51
2022-08-09T05:02:02.868Z,60.83
2022-08-09T05:05:09.655Z,61.09
2022-08-09T05:08:15.121Z,60.90
2022-08-09T05:11:21.835Z,61.04
2022-08-09T05:14:27.209Z,60.88
2022-08-09T05:18:42.869Z,60.75
2022-08-09T05:20:57.103Z,60.27
2022-08-09T05:24:05.445Z,60.49
2022-08-09T05:27:14.041Z,60.24
2022-08-09T05:30:23.403Z,60.15
2022-08-09T05:33:33.146Z,59.85
2022-08-09T05:36:39.694Z,59.76
2022-08-09T05:39:47.341Z,59.99
2022-08-09T05:42:54.021Z,59.31
2022-08-09T05:45:59.390Z,58.90
2022-08-09T05:49:07.268Z,59.00
2022-08-09T05:52:12.347Z,58.60
2022-08-09T05:55:21.345Z,58.34
2022-08-09T05:58:29.686Z,57.67
2022-08-09T06:01:42.322Z,56.04
2022-08-09T06:04:49.721Z,54.60
2022-08-09T06:08:05.317Z,54.73
2022-08-09T06:11:17.445Z,54.71
2022-08-09T06:14:24.270Z,53.55
2022-08-09T06:17:40.312Z,52.86
2022-08-09T06:20:49.829Z,51.65
2022-08-09T06:24:02.541Z,51.46
2022-08-09T06:27:07.649Z,49.75
2022-08-09T06:30:16.171Z,49.25
2022-08-09T06:33:39.860Z,48.09
2022-08-09T06:36:46.170Z,44.91
2022-08-09T06:40:00.153Z,42.45
2022-08-09T06:43:07.751Z,40.25
2022-08-09T06:46:40.269Z,39.84
2022-08-09T06:50:11.250Z,40.91
2022-08-09T06:53:07.203Z,40.87
2022-08-09T06:56:12.066Z,41.65
2022-08-09T07:00:50.844Z,42.19
2022-08-09T07:02:45.160Z,42.40
2022-08-09T07:06:02.612Z,42.10
2022-08-09T07:09:56.502Z,41.00
2022-08-09T07:12:38.515Z,41.07
2022-08-09T07:16:35.381Z,41.93
2022-08-09T07:19:15.734Z,39.72
2022-08-09T07:22:27.452Z,40.29
2022-08-09T07:25:42.736Z,40.32
2022-08-09T07:29:08.917Z,39.73
2022-08-09T07:32:13.576Z,39.50
2022-08-09T07:35:20.116Z,38.95
2022-08-09T07:38:31.221Z,38.11
2022-08-09T07:41:38.861Z,38.05
2022-08-09T07:44:51.666Z,36.88
2022-08-09T07:48:04.485Z,37.10
2022-08-09T07:52:06.085Z,37.09
2022-08-09T07:54:36.062Z,36.77
2022-08-09T07:57:46.957Z,36.30
2022-08-09T08:00:55.961Z,36.47
2022-08-09T08:04:10.930Z,36.19
2022-08-09T08:08:44.322Z,35.43
2022-08-09T08:11:03.118Z,35.26
2022-08-09T08:14:07.600Z,34.41
2022-08-09T08:17:35.344Z,35.03
2022-08-09T08:20:39.319Z,34.98
2022-08-09T08:23:55.735Z,35.30
2022-08-09T08:27:01.017Z,34.66
2022-08-09T08:30:07.115Z,34.52
2022-08-09T08:33:23.026Z,35.05
2022-08-09T08:36:30.748Z,34.54
2022-08-09T08:39:39.750Z,34.85
2022-08-09T08:42:49.213Z,34.82
2022-08-09T08:46:10.189Z,34.40
2022-08-09T08:49:33.475Z,33.50
2022-08-09T08:52:57.492Z,34.03
2022-08-09T08:56:06.918Z,32.95
2022-08-09T08:59:19.408Z,33.47
2022-08-09T09:02:31.430Z,32.91
2022-08-09T09:06:00.651Z,33.43
2022-08-09T09:09:06.671Z,31.55
2022-08-09T09:12:30.300Z,31.22
2022-08-09T09:15:37.010Z,31.08
2022-08-09T09:18:48.155Z,31.61
2022-08-09T09:22:11.329Z,30.43
2022-08-09T09:26:01.042Z,30.20
2022-08-09T09:29:03.556Z,30.14
2022-08-09T09:32:20.817Z,31.61
2022-08-09T09:36:02.459Z,30.38
2022-08-09T09:39:11.472Z,30.50
2022-08-09T09:42:26.148Z,31.28
2022-08-09T09:49:32.175Z,29.24
2022-08-09T09:52:54.735Z,28.67
2022-08-09T09:56:05.548Z,29.15
2022-08-09T09:59:12.690Z,29.22
2022-08-09T10:02:26.336Z,29.36
2022-08-09T10:06:03.765Z,28.58
2022-08-09T10:09:21.886Z,28.99
2022-08-09T10:12:31.675Z,28.27
2022-08-09T10:16:09.612Z,26.92
2022-08-09T10:19:16.502Z,26.23
2022-08-09T10:22:33.403Z,26.61
2022-08-09T10:26:07.625Z,26.92
2022-08-09T10:29:22.754Z,26.61
2022-08-09T10:32:40.106Z,26.33
2022-08-09T10:35:49.938Z,25.79
2022-08-09T10:38:59.702Z,25.76
2022-08-09T10:42:05.291Z,25.76
2022-08-09T10:45:16.494Z,26.11
2022-08-09T10:48:31.106Z,25.87
2022-08-09T10:51:53.084Z,26.25
2022-08-09T10:54:58.127Z,25.48
2022-08-09T10:58:03.989Z,25.86
2022-08-09T11:03:13.559Z,25.00
2022-08-09T11:05:25.312Z,25.32
2022-08-09T11:08:47.858Z,26.04
2022-08-09T11:12:17.783Z,25.58
2022-08-09T11:15:33.664Z,24.92
2022-08-09T11:18:47.305Z,24.51
2022-08-09T11:22:05.167Z,23.86
2022-08-09T11:25:26.127Z,24.22
2022-08-09T11:28:56.477Z,24.62
2022-08-09T11:32:02.367Z,23.59
2022-08-09T11:35:11.001Z,23.71
2022-08-09T11:38:19.368Z,23.44
2022-08-09T11:41:38.040Z,23.63
2022-08-09T11:44:49.491Z,23.49
2022-08-09T11:47:59.959Z,23.07
2022-08-09T11:52:50.021Z,24.40
2022-08-09T11:54:35.003Z,24.25
2022-08-09T11:57:47.592Z,24.81
2022-08-09T12:01:23.775Z,24.63
2022-08-09T12:04:37.335Z,23.75
2022-08-09T12:07:43.179Z,24.04
2022-08-09T12:10:50.285Z,23.09
2022-08-09T12:14:08.352Z,23.34
2022-08-09T12:17:34.660Z,22.75
2022-08-09T12:20:46.609Z,22.99
2022-08-09T12:24:06.717Z,23.34
2022-08-09T12:29:11.902Z,22.98
2022-08-09T12:30:49.395Z,23.02
2022-08-09T12:34:00.812Z,22.39
2022-08-09T12:37:21.690Z,22.48
2022-08-09T12:40:30.989Z,22.13
2022-08-09T12:44:06.325Z,22.24
2022-08-09T12:47:08.150Z,23.02
2022-08-09T12:50:23.417Z,21.98
2022-08-09T12:53:37.619Z,22.00
2022-08-09T12:56:54.187Z,21.78
2022-08-09T13:00:14.597Z,22.08
2022-08-09T13:03:54.153Z,20.88
2022-08-09T13:06:55.828Z,20.76
2022-08-09T13:10:04.867Z,20.95
2022-08-09T13:13:11.442Z,21.31
2022-08-09T13:16:17.706Z,20.85
2022-08-09T13:20:08.706Z,20.72
2022-08-09T13:23:05.739Z,21.02
2022-08-09T13:26:36.712Z,21.35
2022-08-09T13:30:04.119Z,21.25
2022-08-09T13:33:52.210Z,21.80
2022-08-09T13:36:52.564Z,19.86
2022-08-09T13:41:50.812Z,20.35
2022-08-09T13:43:23.128Z,20.85
2022-08-09T13:47:17.959Z,20.21
2022-08-09T13:50:12.679Z,20.24
2022-08-09T13:53:28.545Z,20.01
2022-08-09T13:56:48.657Z,19.51
2022-08-09T13:59:53.809Z,19.60
2022-08-09T14:03:02.958Z,19.77
2022-08-09T14:06:25.708Z,19.11
2022-08-09T14:09:34.742Z,18.49
2022-08-09T14:12:40.781Z,19.82
2022-08-09T14:16:07.149Z,19.75
2022-08-09T14:19:11.003Z,19.00
2022-08-09T14:22:15.970Z,18.61
2022-08-09T14:25:23.098Z,18.80
2022-08-09T14:28:28.196Z,18.96
2022-08-09T14:31:50.306Z,19.05
2022-08-09T14:34:58.969Z,19.75
2022-08-09T14:38:04.435Z,20.00
2022-08-09T14:41:26.737Z,19.82
2022-08-09T14:44:48.434Z,19.88
2022-08-09T14:48:02.575Z,19.47
2022-08-09T14:51:09.015Z,18.59
2022-08-09T14:54:16.196Z,19.18
2022-08-09T14:57:22.727Z,19.12
2022-08-09T15:00:37.432Z,19.22
2022-08-09T15:03:47.888Z,20.18
2022-08-09T15:06:54.678Z,19.50
2022-08-09T15:10:07.399Z,19.22
2022-08-09T15:13:17.756Z,19.77
2022-08-09T15:16:23.279Z,19.34
2022-08-09T15:19:36.022Z,21.08
2022-08-09T15:22:46.462Z,21.69
2022-08-09T15:25:52.216Z,21.00
2022-08-09T15:29:04.454Z,21.64
2022-08-09T15:32:29.970Z,20.57
2022-08-09T15:35:44.114Z,21.29
2022-08-09T15:39:00.700Z,21.20
2022-08-09T15:42:06.286Z,21.03
2022-08-09T15:45:14.912Z,20.44
2022-08-09T15:48:29.072Z,20.23
2022-08-09T15:52:03.092Z,20.79
2022-08-09T15:55:00.203Z,20.79
2022-08-09T15:58:05.078Z,21.06
2022-08-09T16:01:35.386Z,20.45
2022-08-09T16:04:42.788Z,21.05
2022-08-09T16:07:49.489Z,20.71
2022-08-09T16:10:56.980Z,21.32
2022-08-09T16:14:06.806Z,21.05
2022-08-09T16:17:17.049Z,21.71
2022-08-09T16:20:30.252Z,21.02
2022-08-09T16:23:35.319Z,21.38
2022-08-09T16:26:42.980Z,20.94
2022-08-09T16:29:58.573Z,21.21
2022-08-09T16:33:12.327Z,21.78
2022-08-09T16:36:21.847Z,21.40
2022-08-09T16:39:30.456Z,22.04
2022-08-09T16:42:53.403Z,21.62
2022-08-09T16:45:57.885Z,22.15
2022-08-09T16:49:18.787Z,23.38
2022-08-09T16:52:27.624Z,23.38
2022-08-09T16:55:57.807Z,23.26
2022-08-09T16:58:55.232Z,23.31
2022-08-09T17:02:02.463Z,23.00
2022-08-09T17:05:09.651Z,23.84
2022-08-09T17:08:45.795Z,23.69
2022-08-09T17:11:42.363Z,24.21
2022-08-09T17:14:49.282Z,23.48
2022-08-09T17:18:00.849Z,23.97
2022-08-09T17:21:08.460Z,23.68
2022-08-09T17:24:27.710Z,23.53
2022-08-09T17:27:38.222Z,24.54
2022-08-09T17:30:47.616Z,23.64
2022-08-09T17:33:53.511Z,23.95
2022-08-09T17:36:58.884Z,24.36
2022-08-09T17:40:18.113Z,24.66
2022-08-09T17:43:35.370Z,23.69
2022-08-09T17:46:41.843Z,24.58
2022-08-09T17:50:10.897Z,23.94
2022-08-09T17:53:23.024Z,25.04
2022-08-09T17:56:29.303Z,25.36
2022-08-09T17:59:38.918Z,24.86
2022-08-09T18:02:58.199Z,25.07
2022-08-09T18:06:03.087Z,24.97
2022-08-09T18:09:08.832Z,25.13
2022-08-09T18:12:19.532Z,25.43
2022-08-09T18:15:50.658Z,25.11
2022-08-09T18:18:49.058Z,25.42
2022-08-09T18:21:53.161Z,25.63
2022-08-09T18:24:58.507Z,25.83
2022-08-09T18:28:09.214Z,26.36
2022-08-09T18:31:51.381Z,26.69
2022-08-09T18:34:49.670Z,26.21
2022-08-09T18:37:56.558Z,26.41
2022-08-09T18:41:02.196Z,26.52
2022-08-09T18:44:13.555Z,27.91
2022-08-09T18:47:23.402Z,27.92
2022-08-09T18:50:33.514Z,28.29
2022-08-09T18:53:59.780Z,28.17
2022-08-09T18:57:05.741Z,28.47
2022-08-09T19:00:19.102Z,29.05
2022-08-09T19:03:25.473Z,29.47
2022-08-09T19:06:32.618Z,28.43
2022-08-09T19:10:14.781Z,29.77
2022-08-09T19:13:22.585Z,30.08
2022-08-09T19:16:36.591Z,30.63
2022-08-09T19:19:42.118Z,31.37
2022-08-09T19:22:53.984Z,31.29
2022-08-09T19:26:02.355Z,31.49
2022-08-09T19:29:18.329Z,31.85
2022-08-09T19:32:29.474Z,32.09
2022-08-09T19:35:58.156Z,32.70
2022-08-09T19:38:58.813Z,32.45
2022-08-09T19:42:08.345Z,33.02
2022-08-09T19:45:13.857Z,33.17
2022-08-09T19:48:17.631Z,33.49
2022-08-09T19:51:42.019Z,34.20
2022-08-09T19:54:55.463Z,34.90
2022-08-09T19:57:59.711Z,34.78
2022-08-09T20:01:05.037Z,34.71
2022-08-09T20:04:27.857Z,34.82
2022-08-09T20:07:59.356Z,35.48
2022-08-09T20:11:07.713Z,35.70
2022-08-09T20:14:15.439Z,34.41
2022-08-09T20:17:20.865Z,34.97
2022-08-09T20:20:25.189Z,35.07
2022-08-09T20:23:38.961Z,35.58
2022-08-09T20:26:43.964Z,35.76
2022-08-09T20:29:48.764Z,35.71
2022-08-09T20:32:54.896Z,36.46
2022-08-09T20:35:58.740Z,36.68
2022-08-09T20:39:28.415Z,36.18
2022-08-09T20:42:26.937Z,36.72
2022-08-09T20:45:59.794Z,37.38
2022-08-09T20:48:56.692Z,37.27
2022-08-09T20:52:00.613Z,37.34
2022-08-09T20:55:06.976Z,38.59
2022-08-09T20:58:20.225Z,39.11
2022-08-09T21:01:34.867Z,39.18
2022-08-09T21:05:54.696Z,38.49
2022-08-09T21:08:14.587Z,39.81
2022-08-09T21:14:43.192Z,40.08
2022-08-09T21:18:11.713Z,40.61
2022-08-09T21:21:19.150Z,40.79
2022-08-09T21:24:28.468Z,40.51
2022-08-09T21:27:52.577Z,40.87
2022-08-09T21:30:56.905Z,41.55
2022-08-09T21:34:01.774Z,40.71
2022-08-09T21:37:18.342Z,40.45
2022-08-09T21:40:30.252Z,41.12
2022-08-09T21:43:56.608Z,41.07
2022-08-09T21:46:58.467Z,41.38
2022-08-09T21:50:02.248Z,41.54
2022-08-09T21:53:15.703Z,42.17
2022-08-09T21:56:54.631Z,42.24
2022-08-09T21:59:58.603Z,42.14
2022-08-09T22:03:05.803Z,42.74
2022-08-09T22:06:10.005Z,43.18
2022-08-09T22:09:17.006Z,43.39
2022-08-09T22:12:31.413Z,44.10
2022-08-09T22:15:37.071Z,44.13
2022-08-09T22:18:52.180Z,44.46
2022-08-09T22:21:57.842Z,44.51
2022-08-09T22:26:06.971Z,44.36
2022-08-09T22:28:32.503Z,44.40
2022-08-09T22:31:36.944Z,44.25
2022-08-09T22:34:42.122Z,44.70
2022-08-09T22:37:46.927Z,44.53
2022-08-09T22:40:58.175Z,44.56
2022-08-09T22:44:04.216Z,44.67
2022-08-09T22:48:14.399Z,44.67
2022-08-09T22:50:33.880Z,45.15
2022-08-09T22:53:58.607Z,44.78
2022-08-09T22:57:05.611Z,45.24
2022-08-09T23:00:14.418Z,44.91
2022-08-09T23:04:02.452Z,45.60
2022-08-09T23:07:01.507Z,45.25
2022-08-09T23:10:05.698Z,45.46
2022-08-09T23:13:12.661Z,45.11
2022-08-09T23:16:19.367Z,45.18
2022-08-09T23:19:23.164Z,44.65
2022-08-09T23:22:27.676Z,43.99
2022-08-09T23:25:31.423Z,43.91
2022-08-09T23:28:37.074Z,43.90
2022-08-09T23:31:41.160Z,43.96
2022-08-09T23:34:45.157Z,44.08
2022-08-09T23:37:48.864Z,44.33
2022-08-09T23:40:52.635Z,44.74
2022-08-09T23:43:57.545Z,44.84
2022-08-09T23:47:00.961Z,45.42
2022-08-09T23:50:04.146Z,45.33
2022-08-09T23:53:07.188Z,45.27
2022-08-09T23:56:12.350Z,45.37
2022-08-09T23:59:16.446Z,45.68
